Time;durP1;ratioP1;P1;durP2;ratioP2;P2;SDS_P1;SDS_P2;PMS_P1;PMS_P2;Temp;Humidity;BMP_temperature;BMP_pressure;BME280_temperature;BME280_humidity;BME280_pressure;Samples;Min_cycle;Max_cycle;Signal;HPM_P1;HPM_P2
2022/09/01 00:01:19;;;;;;;0.70;0.30;;;;;;;17.56;76.59;101725.88;5021723;28;20117;-65
2022/09/01 00:03:47;;;;;;;0.90;0.65;;;;;;;17.54;76.91;101728.19;5018557;28;20037;-65
2022/09/01 00:06:21;;;;;;;0.40;0.30;;;;;;;17.34;78.08;101728.75;5018412;28;20033;-65
2022/09/01 00:08:48;;;;;;;0.40;0.30;;;;;;;17.19;78.39;101732.47;5026017;28;20036;-66
2022/09/01 00:11:13;;;;;;;0.85;0.40;;;;;;;17.14;79.38;101725.41;5017792;28;20362;-65
2022/09/01 00:13:39;;;;;;;2.03;0.50;;;;;;;17.20;78.78;101723.94;5029036;28;20075;-65
2022/09/01 00:16:05;;;;;;;0.40;0.30;;;;;;;17.14;79.04;101722.69;5030195;28;20314;-65
2022/09/01 00:18:31;;;;;;;1.77;0.70;;;;;;;17.14;79.39;101730.84;5026714;28;20124;-66
2022/09/01 00:20:58;;;;;;;0.70;0.70;;;;;;;17.27;78.43;101729.44;5022329;28;20061;-66
2022/09/01 00:23:26;;;;;;;0.50;0.50;;;;;;;17.21;78.97;101728.19;5026075;28;20551;-65
2022/09/01 00:25:52;;;;;;;2.03;0.55;;;;;;;17.25;78.94;101725.53;5021483;28;20137;-65
2022/09/01 00:28:17;;;;;;;0.55;0.55;;;;;;;17.23;78.87;101717.72;5016535;28;20037;-65
2022/09/01 00:30:43;;;;;;;0.77;0.40;;;;;;;17.31;78.65;101727.53;5021370;28;20036;-65
2022/09/01 00:33:08;;;;;;;0.50;0.50;;;;;;;17.25;78.67;101714.66;5024891;28;20030;-64
2022/09/01 00:35:34;;;;;;;0.55;0.50;;;;;;;17.24;78.71;101719.31;5023626;28;20025;-64
2022/09/01 00:37:59;;;;;;;0.70;0.52;;;;;;;17.15;79.48;101716.88;5021695;28;20065;-65
2022/09/01 00:40:24;;;;;;;0.57;0.50;;;;;;;17.06;79.61;101713.66;5022203;28;20041;-64
2022/09/01 00:42:52;;;;;;;0.70;0.60;;;;;;;17.16;79.29;101712.22;5022463;28;20139;-65
2022/09/01 00:45:20;;;;;;;0.77;0.57;;;;;;;16.98;79.91;101722.13;5003898;28;20120;-64
2022/09/01 00:47:46;;;;;;;0.63;0.40;;;;;;;16.99;80.08;101716.28;5021314;28;20119;-66
2022/09/01 00:50:15;;;;;;;0.68;0.60;;;;;;;16.88;80.92;101711.88;5024811;28;20025;-65
2022/09/01 00:52:49;;;;;;;0.75;0.57;;;;;;;16.80;81.32;101707.53;5016727;28;20034;-64
2022/09/01 00:55:23;;;;;;;0.93;0.60;;;;;;;16.76;81.25;101709.44;5003259;28;20022;-64
2022/09/01 00:57:49;;;;;;;0.50;0.47;;;;;;;16.87;81.26;101711.13;5019705;28;20181;-65
2022/09/01 01:00:25;;;;;;;1.45;0.60;;;;;;;16.73;81.53;101708.22;5022962;28;20106;-66
2022/09/01 01:02:54;;;;;;;0.50;0.50;;;;;;;16.81;81.25;101701.72;5019463;28;20041;-64
2022/09/01 01:05:22;;;;;;;0.93;0.60;;;;;;;16.82;80.88;101705.22;5013123;28;20578;-65
2022/09/01 01:07:49;;;;;;;0.98;0.57;;;;;;;16.87;81.28;101710.31;5018954;28;20041;-64
2022/09/01 01:10:21;;;;;;;0.73;0.60;;;;;;;16.98;80.74;101701.13;5016307;28;20112;-65
2022/09/01 01:12:48;;;;;;;0.40;0.40;;;;;;;16.92;81.01;101699.09;5007944;28;20497;-65
2022/09/01 01:15:16;;;;;;;0.55;0.40;;;;;;;16.85;81.15;101701.75;5021875;28;20120;-64
2022/09/01 01:17:41;;;;;;;0.52;0.50;;;;;;;16.81;81.68;101701.72;5008549;28;20033;-64
2022/09/01 01:23:08;;;;;;;0.50;0.50;;;;;;;16.80;81.58;101702.09;5013869;28;20053;-64
2022/09/01 01:25:35;;;;;;;0.98;0.70;;;;;;;16.66;82.24;101710.06;5020933;28;20037;-64
2022/09/01 01:28:06;;;;;;;1.15;0.60;;;;;;;16.76;82.05;101709.44;5022665;28;20034;-64
2022/09/01 01:30:35;;;;;;;0.73;0.55;;;;;;;16.82;81.48;101707.94;5021320;28;20030;-64
2022/09/01 01:33:03;;;;;;;0.60;0.60;;;;;;;16.85;81.84;101712.63;5003199;28;20021;-65
2022/09/01 01:35:30;;;;;;;3.22;0.52;;;;;;;16.81;82.34;101711.81;5006618;28;20021;-64
2022/09/01 01:37:57;;;;;;;1.15;0.50;;;;;;;16.81;82.23;101712.59;5006837;28;20115;-64
2022/09/01 01:40:23;;;;;;;1.00;0.60;;;;;;;16.91;81.99;101711.16;5005296;28;20065;-64
2022/09/01 01:42:51;;;;;;;0.70;0.60;;;;;;;16.86;82.01;101714.22;5023949;28;20517;-65
2022/09/01 01:45:19;;;;;;;0.50;0.50;;;;;;;16.98;80.96;101709.28;5010003;28;20041;-64
2022/09/01 01:47:55;;;;;;;0.50;0.50;;;;;;;16.90;81.46;101704.13;5026628;28;20033;-65
2022/09/01 01:50:25;;;;;;;0.52;0.50;;;;;;;16.81;81.82;101715.31;5018712;28;20032;-65
2022/09/01 01:52:53;;;;;;;2.45;0.50;;;;;;;16.78;81.69;101710.59;5012537;28;20119;-65
2022/09/01 01:55:22;;;;;;;1.23;0.70;;;;;;;16.92;81.93;101716.22;5022255;28;20044;-65
2022/09/01 01:57:48;;;;;;;0.57;0.55;;;;;;;16.99;81.10;101704.63;5005138;28;20037;-65
2022/09/01 02:00:21;;;;;;;0.63;0.52;;;;;;;17.01;80.86;101710.50;5011845;28;20493;-64
2022/09/01 02:02:51;;;;;;;0.82;0.60;;;;;;;17.02;81.06;101712.84;5030054;28;20030;-65
2022/09/01 02:05:44;;;;;;;0.68;0.45;;;;;;;16.75;81.59;101707.84;5022213;28;20030;-66
2022/09/01 02:08:10;;;;;;;0.43;0.43;;;;;;;16.77;81.86;101710.97;4993889;28;20649;-64
2022/09/01 02:10:42;;;;;;;0.70;0.30;;;;;;;16.69;81.90;101707.38;5017585;28;20090;-65
2022/09/01 02:13:15;;;;;;;0.85;0.60;;;;;;;16.69;82.65;101712.03;5008223;28;20044;-66
2022/09/01 02:15:45;;;;;;;0.40;0.40;;;;;;;16.61;82.57;101713.09;5027386;28;20076;-65
2022/09/01 02:18:15;;;;;;;0.85;0.32;;;;;;;16.53;82.75;101709.50;5009965;28;20537;-65
2022/09/01 02:20:42;;;;;;;0.50;0.50;;;;;;;16.50;83.46;101714.91;5004443;28;20038;-65
2022/09/01 02:23:10;;;;;;;0.80;0.43;;;;;;;16.49;83.37;101707.91;5024513;28;20030;-65
2022/09/01 02:25:44;;;;;;;0.63;0.50;;;;;;;16.55;83.41;101703.72;5022384;28;20727;-65
2022/09/01 02:28:15;;;;;;;0.98;0.70;;;;;;;16.47;83.13;101704.75;5011267;28;20049;-65
2022/09/01 02:30:43;;;;;;;;;;;;;;;16.63;83.20;101710.78;5026929;28;20034;-65
2022/09/01 02:33:17;;;;;;;1.90;0.50;;;;;;;16.55;83.35;101701.75;5010172;28;20061;-65
2022/09/01 02:35:50;;;;;;;1.27;0.50;;;;;;;16.40;83.83;101697.25;4999845;28;20106;-65
2022/09/01 02:38:16;;;;;;;1.00;0.60;;;;;;;16.40;83.82;101697.25;5026884;28;20734;-65
2022/09/01 02:40:46;;;;;;;1.33;0.50;;;;;;;16.40;83.97;101701.91;5012563;28;20190;-65
2022/09/01 02:43:19;;;;;;;2.08;0.75;;;;;;;16.34;84.27;101698.72;5023905;28;20397;-64
2022/09/01 02:45:54;;;;;;;0.60;0.55;;;;;;;16.31;84.37;101706.84;5019778;28;20022;-64
2022/09/01 02:48:34;;;;;;;0.30;0.30;;;;;;;16.06;85.12;101693.69;5026853;28;20040;-65
2022/09/01 02:51:02;;;;;;;;;;;;;;;16.06;85.79;101695.63;5001782;28;20037;-65
2022/09/01 02:53:29;;;;;;;1.63;0.40;;;;;;;16.07;85.86;101687.09;5019287;28;19920;-65
2022/09/01 02:55:57;;;;;;;1.42;0.45;;;;;;;16.02;86.38;101687.41;5006904;28;20117;-65
2022/09/01 02:58:32;;;;;;;1.02;0.73;;;;;;;16.14;85.62;101698.06;5004290;28;20037;-65
2022/09/01 03:00:58;;;;;;;0.85;0.57;;;;;;;16.04;86.09;101689.75;5027524;28;20521;-66
2022/09/01 03:03:24;;;;;;;0.80;0.50;;;;;;;16.02;86.05;101695.56;5008584;28;20118;-65
2022/09/01 03:05:54;;;;;;;2.95;0.47;;;;;;;15.88;86.76;101695.34;5005223;28;20033;-66
2022/09/01 03:08:23;;;;;;;0.60;0.50;;;;;;;16.02;86.64;101690.13;5024266;28;20083;-65
2022/09/01 03:10:50;;;;;;;0.50;0.40;;;;;;;15.92;86.26;101687.25;5020783;28;20096;-65
2022/09/01 03:13:19;;;;;;;0.90;0.55;;;;;;;15.81;87.11;101692.53;5028201;28;20453;-65
2022/09/01 03:15:45;;;;;;;0.28;0.28;;;;;;;16.02;86.80;101697.50;5025585;28;20021;-65
2022/09/01 03:18:12;;;;;;;0.40;0.40;;;;;;;16.09;85.82;101703.81;4997393;28;20036;-64
2022/09/01 03:20:42;;;;;;;0.50;0.50;;;;;;;16.07;86.05;101706.13;5014243;28;21485;-64
2022/09/01 03:23:13;;;;;;;0.70;0.50;;;;;;;16.00;86.18;101699.78;5026691;28;20033;-64
2022/09/01 03:25:42;;;;;;;2.50;0.40;;;;;;;15.94;86.15;101698.53;5004711;28;20398;-64
2022/09/01 03:28:11;;;;;;;0.80;0.52;;;;;;;15.75;86.68;101699.41;5007435;28;20022;-64
2022/09/01 03:30:42;;;;;;;0.30;0.30;;;;;;;15.74;87.09;101705.19;5026861;28;20029;-64
2022/09/01 03:33:08;;;;;;;0.52;0.52;;;;;;;15.87;86.78;101695.72;5025465;28;20025;-64
2022/09/01 03:35:34;;;;;;;0.43;0.38;;;;;;;15.90;86.84;101703.13;5007657;28;20042;-64
2022/09/01 03:38:00;;;;;;;0.50;0.50;;;;;;;15.81;87.09;101700.69;5025619;28;20029;-64
2022/09/01 03:40:31;;;;;;;0.63;0.50;;;;;;;15.90;86.98;101701.19;5012436;28;20068;-64
2022/09/01 03:43:01;;;;;;;0.60;0.50;;;;;;;15.98;86.03;101694.72;5026337;28;20639;-64
2022/09/01 03:45:28;;;;;;;0.57;0.40;;;;;;;15.91;86.36;101699.28;5001504;28;20033;-64
2022/09/01 03:47:55;;;;;;;1.90;0.85;;;;;;;15.82;86.72;101696.81;5009954;28;20033;-64
2022/09/01 03:50:23;;;;;;;0.45;0.40;;;;;;;15.73;87.36;101688.13;5009091;28;20469;-64
2022/09/01 03:52:52;;;;;;;2.20;0.50;;;;;;;15.74;87.39;101692.41;5017765;28;20033;-64
2022/09/01 03:55:25;;;;;;;0.85;0.57;;;;;;;15.71;86.98;101692.34;5011162;28;20466;-64
2022/09/01 03:58:02;;;;;;;0.80;0.60;;;;;;;15.64;87.39;101693.00;5013115;28;20025;-64
2022/09/01 04:00:34;;;;;;;0.20;0.20;;;;;;;15.59;88.06;101692.53;5001008;28;20060;-64
2022/09/01 04:03:02;;;;;;;0.57;0.40;;;;;;;15.58;87.69;101686.31;5009624;28;20521;-64
2022/09/01 04:05:32;;;;;;;0.93;0.40;;;;;;;15.46;88.42;101691.16;5011083;28;20026;-64
2022/09/01 04:08:03;;;;;;;0.77;0.60;;;;;;;15.37;88.94;101683.19;5009848;28;20145;-64
2022/09/01 04:10:34;;;;;;;0.57;0.50;;;;;;;15.36;89.53;101693.28;5029428;28;20108;-64
2022/09/01 04:13:01;;;;;;;0.63;0.50;;;;;;;15.40;89.22;101693.34;5005476;28;20044;-64
2022/09/01 04:15:27;;;;;;;0.52;0.52;;;;;;;15.43;88.67;101691.88;5008672;28;20017;-64
2022/09/01 04:18:08;;;;;;;1.98;0.60;;;;;;;15.42;88.60;101693.81;5011011;28;20402;-64
2022/09/01 04:20:47;;;;;;;0.47;0.47;;;;;;;15.34;88.78;101689.38;5011911;28;20555;-64
2022/09/01 04:23:32;;;;;;;1.00;0.60;;;;;;;15.30;89.29;101692.03;5026276;28;20044;-64
2022/09/01 04:26:09;;;;;;;0.50;0.47;;;;;;;15.49;88.45;101691.19;5006625;28;20041;-64
2022/09/01 04:28:44;;;;;;;1.05;0.50;;;;;;;15.63;88.34;101690.66;5001866;28;20033;-64
2022/09/01 04:31:16;;;;;;;0.55;0.40;;;;;;;15.68;88.07;101693.09;5006532;28;20029;-64
2022/09/01 04:33:45;;;;;;;1.25;0.70;;;;;;;15.62;87.71;101698.00;5005296;28;20032;-64
2022/09/01 04:36:22;;;;;;;0.85;0.60;;;;;;;15.46;88.48;101696.56;4998992;28;20036;-64
2022/09/01 04:38:54;;;;;;;1.42;0.70;;;;;;;15.47;88.80;101693.50;5004951;28;20040;-64
2022/09/01 04:41:29;;;;;;;0.93;0.40;;;;;;;15.46;88.90;101686.50;5020637;28;20044;-64
2022/09/01 04:43:56;;;;;;;0.40;0.40;;;;;;;15.46;89.42;101696.56;5007573;28;20033;-64
2022/09/01 04:46:24;;;;;;;0.68;0.60;;;;;;;15.44;89.49;101688.81;5029384;28;20402;-64
2022/09/01 04:48:54;;;;;;;1.83;0.60;;;;;;;15.45;89.68;101695.03;5000853;28;20037;-64
2022/09/01 04:51:21;;;;;;;0.63;0.50;;;;;;;15.43;90.28;101689.94;5012412;28;20513;-64
2022/09/01 04:53:50;;;;;;;0.82;0.43;;;;;;;15.49;89.59;101693.13;5015450;28;20486;-64
2022/09/01 04:56:18;;;;;;;1.02;0.60;;;;;;;15.53;89.28;101699.41;5010944;28;20038;-64
2022/09/01 04:58:46;;;;;;;0.52;0.50;;;;;;;15.46;90.12;101696.56;5025401;28;20046;-64
2022/09/01 05:01:20;;;;;;;0.52;0.50;;;;;;;15.55;90.35;101694.41;5012693;28;20124;-64
2022/09/01 05:03:52;;;;;;;0.70;0.70;;;;;;;15.68;89.78;101701.22;5004948;28;20029;-64
2022/09/01 05:06:38;;;;;;;0.40;0.40;;;;;;;15.59;90.08;101698.75;5007973;28;20452;-64
2022/09/01 05:09:04;;;;;;;0.57;0.50;;;;;;;15.64;90.23;101697.69;5014572;28;20530;-64
2022/09/01 05:11:52;;;;;;;0.50;0.50;;;;;;;15.66;90.35;101709.72;5015335;28;20124;-64
2022/09/01 05:14:21;;;;;;;1.10;0.50;;;;;;;15.75;90.59;101706.78;4997578;28;20122;-64
2022/09/01 05:16:49;;;;;;;0.80;0.50;;;;;;;15.93;89.54;101697.75;5009466;28;20036;-64
2022/09/01 05:19:16;;;;;;;2.45;0.60;;;;;;;15.99;89.07;101698.22;5030633;28;20394;-64
2022/09/01 05:21:45;;;;;;;0.73;0.60;;;;;;;15.98;89.47;101699.38;5015257;28;20049;-64
2022/09/01 05:24:17;;;;;;;0.50;0.50;;;;;;;15.93;89.78;101703.19;5003046;28;20044;-64
2022/09/01 05:26:46;;;;;;;0.90;0.60;;;;;;;16.13;88.71;101704.66;5012670;28;20041;-64
2022/09/01 05:29:16;;;;;;;0.90;0.63;;;;;;;16.11;89.02;101706.97;5012000;28;20090;-64
2022/09/01 05:31:46;;;;;;;0.40;0.40;;;;;;;16.22;88.90;101715.25;4998910;28;20026;-64
2022/09/01 05:34:13;;;;;;;0.93;0.50;;;;;;;16.24;88.49;101716.47;5020708;28;20100;-66
2022/09/01 05:36:44;;;;;;;0.75;0.60;;;;;;;16.26;88.43;101707.94;5004153;28;20025;-65
2022/09/01 05:39:11;;;;;;;3.20;0.60;;;;;;;16.28;88.97;101709.16;5021948;28;20434;-66
2022/09/01 05:41:38;;;;;;;0.73;0.52;;;;;;;16.38;88.72;101709.66;5034027;28;20064;-65
2022/09/01 05:44:07;;;;;;;0.77;0.52;;;;;;;16.33;88.57;101713.50;5005911;28;20036;-66
2022/09/01 05:46:36;;;;;;;0.50;0.40;;;;;;;16.40;88.58;101718.22;5035946;28;20029;-65
2022/09/01 05:49:05;;;;;;;0.77;0.70;;;;;;;16.45;88.76;101720.66;5016281;28;20033;-65
2022/09/01 05:51:36;;;;;;;0.70;0.70;;;;;;;16.53;88.05;101730.50;5013617;28;20021;-66
2022/09/01 05:54:05;;;;;;;0.45;0.45;;;;;;;16.62;88.60;101726.34;5014493;28;20052;-65
2022/09/01 05:56:31;;;;;;;0.60;0.50;;;;;;;16.62;88.13;101725.56;5017338;28;20016;-65
2022/09/01 05:59:01;;;;;;;1.02;0.63;;;;;;;16.59;88.23;101727.06;5013971;28;20125;-65
2022/09/01 06:01:29;;;;;;;1.63;0.52;;;;;;;16.72;88.66;101724.91;5013668;28;20386;-65
2022/09/01 06:03:56;;;;;;;0.75;0.68;;;;;;;16.77;88.76;101730.03;5020064;28;20021;-65
2022/09/01 06:06:29;;;;;;;0.70;0.50;;;;;;;16.92;88.19;101718.94;5021045;28;20029;-65
2022/09/01 06:08:57;;;;;;;0.82;0.40;;;;;;;17.07;87.31;101728.06;5013251;28;20468;-65
2022/09/01 06:11:25;;;;;;;2.72;0.77;;;;;;;17.15;86.62;101724.25;5035890;28;20032;-65
2022/09/01 06:13:54;;;;;;;0.80;0.50;;;;;;;17.11;86.76;101726.16;5014021;28;20086;-65
2022/09/01 06:16:23;;;;;;;0.75;0.50;;;;;;;17.22;86.39;101727.06;5034634;28;20021;-65
2022/09/01 06:18:52;;;;;;;0.60;0.60;;;;;;;17.25;85.92;101731.75;5019642;28;20410;-65
2022/09/01 06:21:21;;;;;;;1.25;0.60;;;;;;;17.27;85.73;101720.47;5044765;28;20033;-65
2022/09/01 06:23:52;;;;;;;0.82;0.55;;;;;;;17.34;85.01;101726.00;5011683;28;20091;-65
2022/09/01 06:26:29;;;;;;;4.00;0.55;;;;;;;17.21;85.70;101733.66;5032899;28;20021;-65
2022/09/01 06:29:02;;;;;;;1.20;1.00;;;;;;;17.23;86.49;101723.16;5011089;28;20026;-65
2022/09/01 06:31:32;;;;;;;0.70;0.47;;;;;;;17.27;87.12;101726.72;5028280;28;20043;-65
2022/09/01 06:34:07;;;;;;;1.20;0.60;;;;;;;17.48;86.77;101728.88;5019558;28;20049;-65
2022/09/01 06:36:39;;;;;;;1.27;0.75;;;;;;;17.71;85.75;101733.00;5012987;28;20029;-65
2022/09/01 06:39:07;;;;;;;0.68;0.45;;;;;;;17.77;85.30;101730.72;5016254;28;20071;-65
2022/09/01 06:41:36;;;;;;;0.40;0.40;;;;;;;18.10;84.17;101738.00;5017561;28;20105;-65
2022/09/01 06:44:06;;;;;;;1.13;0.55;;;;;;;18.41;83.55;101740.13;5009960;28;20044;-64
2022/09/01 06:46:33;;;;;;;0.50;0.32;;;;;;;18.67;82.96;101737.19;5006797;28;20036;-65
2022/09/01 06:49:02;;;;;;;1.23;0.45;;;;;;;18.95;81.41;101744.72;5017714;28;20052;-64
2022/09/01 06:51:30;;;;;;;0.28;0.28;;;;;;;19.21;80.28;101737.00;5013586;28;20029;-65
2022/09/01 06:53:58;;;;;;;0.40;0.40;;;;;;;19.29;79.06;101737.81;5009501;28;20364;-65
2022/09/01 06:56:32;;;;;;;1.08;0.50;;;;;;;19.64;77.74;101735.16;5011446;28;20386;-65
2022/09/01 06:59:02;;;;;;;0.45;0.40;;;;;;;19.84;77.30;101741.78;5018193;28;20037;-65
2022/09/01 07:01:29;;;;;;;0.60;0.40;;;;;;;20.13;76.54;101745.31;5012768;28;20128;-65
2022/09/01 07:03:57;;;;;;;2.80;0.28;;;;;;;20.34;75.48;101742.56;5014610;28;20032;-65
2022/09/01 07:06:40;;;;;;;0.40;0.28;;;;;;;20.61;73.53;101738.94;5020284;28;20441;-65
2022/09/01 07:09:15;;;;;;;0.32;0.30;;;;;;;20.76;72.80;101742.44;5024014;28;20470;-65
2022/09/01 07:11:44;;;;;;;0.45;0.25;;;;;;;21.00;71.70;101746.25;5015827;28;20528;-65
2022/09/01 07:14:15;;;;;;;0.22;0.20;;;;;;;21.18;71.04;101746.97;5014975;28;20029;-65
2022/09/01 07:16:42;;;;;;;0.40;0.30;;;;;;;21.43;69.72;101747.59;5006659;28;20025;-65
2022/09/01 07:19:13;;;;;;;0.43;0.43;;;;;;;21.53;67.93;101755.75;5018702;28;20041;-65
2022/09/01 07:21:56;;;;;;;0.20;0.20;;;;;;;21.72;65.81;101745.44;5013134;28;20124;-64
2022/09/01 07:24:24;;;;;;;0.22;0.20;;;;;;;21.55;64.70;101755.34;5010484;28;20029;-65
2022/09/01 07:27:13;;;;;;;0.10;0.10;;;;;;;21.77;66.63;101748.53;5035610;28;20457;-64
2022/09/01 07:29:38;;;;;;;0.10;0.10;;;;;;;21.99;66.61;101760.16;5021605;28;20039;-65
2022/09/01 07:32:04;;;;;;;0.20;0.15;;;;;;;22.15;64.00;101760.38;5014546;28;20030;-64
2022/09/01 07:34:30;;;;;;;0.22;0.22;;;;;;;22.33;61.87;101756.28;5022865;28;20057;-65
2022/09/01 07:36:58;;;;;;;0.10;0.10;;;;;;;22.35;60.70;101758.63;5019106;28;20026;-65
2022/09/01 07:39:26;;;;;;;0.13;0.08;;;;;;;22.30;61.48;101750.81;5015930;28;20485;-66
2022/09/01 07:42:14;;;;;;;2.38;0.15;;;;;;;22.37;59.28;101759.00;5028360;28;20049;-64
2022/09/01 07:45:09;;;;;;;0.20;0.17;;;;;;;22.70;58.07;101757.47;5027053;28;20565;-64
2022/09/01 07:47:43;;;;;;;0.38;0.20;;;;;;;22.83;56.95;101762.03;5029842;28;20025;-64
2022/09/01 07:50:13;;;;;;;0.10;0.10;;;;;;;22.94;55.57;101762.66;5010361;28;20033;-65
2022/09/01 07:52:43;;;;;;;0.32;0.17;;;;;;;23.02;55.37;101764.13;5010095;28;20033;-65
2022/09/01 07:55:15;;;;;;;0.38;0.20;;;;;;;22.87;55.39;101768.25;5011045;28;20493;-65
2022/09/01 07:57:44;;;;;;;0.10;0.10;;;;;;;23.18;54.79;101767.06;5014712;28;20217;-65
2022/09/01 08:00:14;;;;;;;0.45;0.20;;;;;;;23.26;55.43;101768.53;5006811;28;20036;-65
2022/09/01 08:02:43;;;;;;;0.10;0.10;;;;;;;23.34;54.22;101769.25;5032658;28;20036;-65
2022/09/01 08:05:19;;;;;;;0.38;0.20;;;;;;;23.21;53.57;101781.94;5014586;28;20030;-65
2022/09/01 08:07:47;;;;;;;0.57;0.10;;;;;;;23.12;53.63;101774.22;5008040;28;20043;-65
2022/09/01 08:10:14;;;;;;;0.10;0.10;;;;;;;23.50;52.57;101776.88;5013124;28;20030;-65
2022/09/01 08:12:40;;;;;;;0.13;0.13;;;;;;;23.81;52.58;101775.63;5019827;28;20049;-65
2022/09/01 08:15:08;;;;;;;0.00;0.00;;;;;;;23.77;51.94;101767.38;5007905;28;20072;-65
2022/09/01 08:17:36;;;;;;;0.10;0.10;;;;;;;24.03;52.31;101771.34;5023864;28;20026;-65
2022/09/01 08:20:07;;;;;;;1.50;0.15;;;;;;;24.34;50.68;101782.97;5010844;28;20068;-63
2022/09/01 08:22:52;;;;;;;1.05;0.20;;;;;;;23.83;49.40;101767.69;5031469;28;20299;-63
2022/09/01 08:25:27;;;;;;;0.00;0.00;;;;;;;24.09;50.11;101777.91;5020525;28;20087;-63
2022/09/01 08:27:53;;;;;;;0.17;0.10;;;;;;;24.46;49.06;101777.66;5015303;28;20041;-63
2022/09/01 08:30:19;;;;;;;0.30;0.10;;;;;;;24.70;48.87;101772.88;5017762;28;20508;-63
2022/09/01 08:32:44;;;;;;;0.10;0.10;;;;;;;24.92;49.05;101774.00;5029039;28;20044;-63
2022/09/01 08:35:11;;;;;;;0.10;0.10;;;;;;;25.00;47.67;101778.94;5015934;28;20029;-63
2022/09/01 08:37:39;;;;;;;0.28;0.10;;;;;;;25.17;47.83;101787.25;5037932;28;20029;-63
2022/09/01 08:40:06;;;;;;;0.15;0.10;;;;;;;25.20;46.14;101786.41;5020442;28;20486;-66
2022/09/01 08:42:32;;;;;;;0.30;0.20;;;;;;;25.42;46.20;101785.53;5028741;28;20091;-64
2022/09/01 08:45:06;;;;;;;0.13;0.10;;;;;;;25.56;45.35;101787.19;5036328;28;20037;-65
2022/09/01 08:47:32;;;;;;;0.10;0.10;;;;;;;25.76;43.04;101787.91;5021012;28;20025;-65
2022/09/01 08:49:59;;;;;;;0.20;0.20;;;;;;;25.90;43.62;101784.78;5025384;28;20021;-65
2022/09/01 08:52:59;;;;;;;0.10;0.10;;;;;;;26.00;42.67;101786.50;5034345;28;20124;-65
2022/09/01 08:55:26;;;;;;;0.10;0.10;;;;;;;26.22;43.29;101786.78;5018236;28;20921;-63
2022/09/01 08:57:54;;;;;;;0.65;0.10;;;;;;;26.29;43.75;101784.59;5018019;28;20021;-63
2022/09/01 09:00:24;;;;;;;0.10;0.10;;;;;;;26.39;41.81;101789.06;5032588;28;20510;-63
2022/09/01 09:03:05;;;;;;;0.10;0.10;;;;;;;26.49;41.79;101788.03;5024918;28;20029;-63
2022/09/01 09:05:42;;;;;;;0.00;0.00;;;;;;;26.58;42.36;101785.38;5031096;28;20041;-65
2022/09/01 09:08:13;;;;;;;0.40;0.20;;;;;;;26.66;43.19;101789.53;5046431;28;20037;-66
2022/09/01 09:10:51;;;;;;;0.22;0.13;;;;;;;26.82;42.66;101790.69;5038002;28;20160;-65
2022/09/01 09:13:35;;;;;;;0.22;0.13;;;;;;;26.28;42.75;101780.31;5036193;28;20116;-65
2022/09/01 09:16:29;;;;;;;0.20;0.20;;;;;;;26.51;42.59;101771.78;5039169;28;20034;-66
2022/09/01 09:19:02;;;;;;;0.20;0.13;;;;;;;26.78;43.49;101775.00;5021793;28;20115;-66
2022/09/01 09:21:38;;;;;;;0.35;0.10;;;;;;;26.92;43.88;101776.56;5044924;28;20029;-66
2022/09/01 09:24:27;;;;;;;0.20;0.20;;;;;;;27.23;42.63;101772.09;5035046;28;20135;-66
2022/09/01 09:26:57;;;;;;;0.10;0.10;;;;;;;27.14;42.66;101766.41;5036546;28;20382;-63
2022/09/01 09:29:24;;;;;;;0.20;0.10;;;;;;;27.36;42.11;101769.34;5035548;28;20029;-63
2022/09/01 09:32:10;;;;;;;0.20;0.10;;;;;;;27.37;40.58;101768.13;5041943;28;20397;-63
2022/09/01 09:34:39;;;;;;;0.10;0.00;;;;;;;27.45;41.35;101764.69;5012972;28;20406;-63
2022/09/01 09:37:26;;;;;;;0.30;0.20;;;;;;;27.35;40.18;101773.34;5037890;28;20037;-62
2022/09/01 09:40:20;;;;;;;0.17;0.10;;;;;;;27.43;40.96;101756.03;5025710;28;20025;-63
2022/09/01 09:42:54;;;;;;;0.10;0.10;;;;;;;27.51;40.50;101753.81;5035074;28;20053;-62
2022/09/01 09:45:34;;;;;;;0.10;0.10;;;;;;;27.90;39.53;101755.31;5031953;28;20029;-62
2022/09/01 09:48:24;;;;;;;0.75;0.10;;;;;;;28.10;38.94;101762.19;5013935;28;20086;-63
2022/09/01 09:50:50;;;;;;;0.17;0.05;;;;;;;28.27;38.05;101758.00;5039838;28;20055;-63
2022/09/01 09:53:33;;;;;;;0.10;0.10;;;;;;;28.45;37.95;101757.38;5032657;28;20025;-63
2022/09/01 09:56:21;;;;;;;0.20;0.10;;;;;;;27.38;38.65;101753.06;5039617;28;20025;-63
2022/09/01 09:58:48;;;;;;;0.95;0.17;;;;;;;27.30;39.09;101748.94;5043018;28;20056;-64
2022/09/01 10:01:21;;;;;;;0.17;0.10;;;;;;;27.28;38.81;101749.38;5035877;28;20041;-63
2022/09/01 10:03:50;;;;;;;0.10;0.10;;;;;;;27.55;39.02;101737.88;5037725;28;20110;-62
2022/09/01 10:06:43;;;;;;;0.20;0.20;;;;;;;27.63;37.48;101737.22;5033651;28;20036;-64
2022/09/01 10:09:29;;;;;;;0.57;0.25;;;;;;;27.91;36.95;101726.41;5030275;28;20509;-64
2022/09/01 10:11:57;;;;;;;0.13;0.10;;;;;;;28.17;37.02;101728.66;5015639;28;20041;-64
2022/09/01 10:14:27;;;;;;;0.10;0.10;;;;;;;28.33;37.17;101733.25;5029258;28;20045;-64
2022/09/01 10:17:00;;;;;;;0.05;0.05;;;;;;;28.39;36.98;101737.00;5034635;28;20022;-64
2022/09/01 10:19:27;;;;;;;0.00;0.00;;;;;;;28.77;36.93;101722.94;5037583;28;20032;-64
2022/09/01 10:21:53;;;;;;;0.30;0.10;;;;;;;29.09;35.42;101728.78;5026304;28;20033;-63
2022/09/01 10:24:35;;;;;;;0.10;0.03;;;;;;;29.32;35.49;101731.09;5030322;28;20044;-63
2022/09/01 10:27:09;;;;;;;0.20;0.10;;;;;;;29.31;34.02;101717.66;5032043;28;20037;-64
2022/09/01 10:29:41;;;;;;;0.03;0.03;;;;;;;29.39;34.28;101730.81;5032158;28;20041;-64
2022/09/01 10:32:11;;;;;;;0.22;0.20;;;;;;;29.40;33.66;101720.47;5038665;28;20436;-63
2022/09/01 10:34:39;;;;;;;0.10;0.10;;;;;;;29.59;33.62;101722.06;4997112;28;20120;-63
2022/09/01 10:37:07;;;;;;;0.10;0.10;;;;;;;29.26;33.32;101721.81;5014940;28;20104;-62
2022/09/01 10:39:33;;;;;;;0.10;0.10;;;;;;;29.68;33.98;101716.53;5035675;28;20482;-64
2022/09/01 10:42:06;;;;;;;0.10;0.10;;;;;;;29.77;32.85;101710.25;5033706;28;20040;-64
2022/09/01 10:44:55;;;;;;;0.13;0.10;;;;;;;29.77;33.23;101722.09;5036892;28;20078;-64
2022/09/01 10:47:28;;;;;;;0.08;0.00;;;;;;;29.82;33.95;101710.41;5030631;28;20037;-64
2022/09/01 10:49:54;;;;;;;0.10;0.10;;;;;;;29.89;33.54;101718.44;5025581;28;20098;-64
2022/09/01 10:52:41;;;;;;;0.13;0.10;;;;;;;29.88;32.99;101722.44;5035416;28;20018;-64
2022/09/01 10:55:14;;;;;;;0.00;0.00;;;;;;;30.04;33.62;101713.78;5034601;28;20077;-63
2022/09/01 10:58:03;;;;;;;0.20;0.10;;;;;;;30.11;33.57;101716.28;5036755;28;20033;-64
2022/09/01 11:00:29;;;;;;;0.10;0.10;;;;;;;29.14;34.61;101710.81;5040005;28;20029;-65
2022/09/01 11:03:12;;;;;;;0.20;0.10;;;;;;;29.10;34.53;101712.91;5040161;28;20390;-64
2022/09/01 11:06:08;;;;;;;0.28;0.10;;;;;;;29.47;34.44;101720.19;5038264;28;20029;-64
2022/09/01 11:08:33;;;;;;;0.22;0.10;;;;;;;29.58;34.46;101708.66;5018869;28;20057;-64
2022/09/01 11:11:04;;;;;;;0.13;0.13;;;;;;;29.38;34.56;101711.84;5024682;28;20031;-64
2022/09/01 11:13:42;;;;;;;0.00;0.00;;;;;;;29.34;34.21;101713.97;5025144;28;20037;-65
2022/09/01 11:16:29;;;;;;;0.15;0.10;;;;;;;29.09;35.08;101711.38;5029514;28;20371;-64
2022/09/01 11:19:15;;;;;;;0.10;0.10;;;;;;;29.01;34.61;101704.56;5026856;28;20045;-65
2022/09/01 11:21:41;;;;;;;0.85;0.15;;;;;;;29.08;36.84;101718.16;5023030;28;20024;-64
2022/09/01 11:24:45;;;;;;;0.20;0.20;;;;;;;28.88;37.63;101710.19;5031415;28;20021;-64
2022/09/01 11:27:49;;;;;;;0.98;0.00;;;;;;;28.57;38.48;101716.97;5037692;28;20052;-64
2022/09/01 11:30:20;;;;;;;0.10;0.10;;;;;;;28.22;39.34;101711.44;5038652;28;20559;-64
2022/09/01 11:32:49;;;;;;;0.10;0.10;;;;;;;27.94;40.35;101711.63;5036282;28;20638;-64
2022/09/01 11:35:21;;;;;;;0.70;0.20;;;;;;;27.84;41.16;101705.25;5033027;28;20029;-65
2022/09/01 11:37:51;;;;;;;0.40;0.20;;;;;;;27.76;41.42;101708.72;5024195;28;20052;-65
2022/09/01 11:40:24;;;;;;;0.13;0.13;;;;;;;27.64;41.30;101699.97;5004711;28;20037;-64
2022/09/01 11:42:53;;;;;;;0.17;0.13;;;;;;;27.31;41.26;101703.44;5011021;28;20037;-65
2022/09/01 11:45:22;;;;;;;0.30;0.20;;;;;;;27.46;41.47;101707.31;5030003;28;20096;-65
2022/09/01 11:47:57;;;;;;;0.60;0.25;;;;;;;27.70;41.27;101702.19;5027690;28;20033;-69
2022/09/01 11:50:32;;;;;;;0.68;0.20;;;;;;;28.03;39.99;101700.69;5018987;28;20398;-65